createdAt,value
2019-01-20T00:01:20.215Z,15.18
2019-01-20T00:03:48.959Z,17.17
2019-01-20T00:06:17.747Z,19.50
2019-01-20T00:08:46.505Z,12.80
2019-01-20T00:11:16.784Z,12.00
2019-01-20T00:13:45.763Z,16.05
2019-01-20T00:16:14.541Z,11.22
2019-01-20T00:18:43.362Z,10.65
2019-01-20T00:21:12.190Z,12.33
2019-01-20T00:23:41.201Z,9.18
2019-01-20T00:26:10.250Z,11.25
2019-01-20T00:28:39.007Z,13.58
2019-01-20T00:31:07.761Z,12.78
2019-01-20T00:33:36.510Z,11.75
2019-01-20T00:36:05.281Z,12.43
2019-01-20T00:38:34.034Z,12.28
2019-01-20T00:41:03.030Z,10.28
2019-01-20T00:43:32.115Z,11.57
2019-01-20T00:46:00.858Z,9.03
2019-01-20T00:48:29.615Z,12.30
2019-01-20T00:50:58.353Z,11.25
2019-01-20T00:53:27.115Z,12.55
2019-01-20T00:55:55.861Z,14.25
2019-01-20T00:58:24.608Z,10.93
2019-01-20T01:00:53.350Z,13.55
2019-01-20T01:03:22.343Z,11.55
2019-01-20T01:05:51.338Z,9.70
2019-01-20T01:08:20.177Z,11.73
2019-01-20T01:10:49.094Z,13.75
2019-01-20T01:13:18.737Z,11.90
2019-01-20T01:15:47.474Z,10.30
2019-01-20T01:18:16.208Z,16.62
2019-01-20T01:20:44.921Z,11.48
2019-01-20T01:23:13.663Z,11.50
2019-01-20T01:25:42.450Z,9.33
2019-01-20T01:28:11.190Z,11.25
2019-01-20T01:30:40.163Z,15.25
2019-01-20T01:33:08.894Z,10.25
2019-01-20T01:35:37.609Z,13.20
2019-01-20T01:38:06.430Z,12.60
2019-01-20T01:40:35.166Z,17.05
2019-01-20T01:43:04.246Z,8.15
2019-01-20T01:45:33.119Z,11.70
2019-01-20T01:48:01.926Z,10.25
2019-01-20T01:50:30.907Z,11.85
2019-01-20T01:52:59.662Z,10.23
2019-01-20T01:55:31.393Z,13.95
2019-01-20T01:58:00.140Z,8.45
2019-01-20T02:00:29.118Z,13.22
2019-01-20T02:02:57.842Z,12.07
2019-01-20T02:05:26.908Z,10.63
2019-01-20T02:07:56.138Z,11.08
2019-01-20T02:10:24.874Z,8.45
2019-01-20T02:12:53.730Z,7.87
2019-01-20T02:15:23.291Z,9.15
2019-01-20T02:17:52.098Z,13.72
2019-01-20T02:20:22.902Z,6.87
2019-01-20T02:22:52.177Z,6.62
2019-01-20T02:25:21.038Z,7.83
2019-01-20T02:27:51.641Z,9.03
2019-01-20T02:30:22.753Z,5.12
2019-01-20T02:32:51.483Z,7.33
2019-01-20T02:35:20.863Z,5.95
2019-01-20T02:37:49.585Z,7.28
2019-01-20T02:40:18.475Z,8.20
2019-01-20T02:42:47.251Z,6.42
2019-01-20T02:45:16.502Z,6.28
2019-01-20T02:47:45.471Z,10.50
2019-01-20T02:50:15.540Z,7.70
2019-01-20T02:52:44.333Z,9.13
2019-01-20T02:55:13.312Z,5.92
2019-01-20T02:57:42.093Z,5.65
2019-01-20T03:00:21.593Z,5.80
2019-01-20T03:02:50.465Z,6.47
2019-01-20T03:05:20.300Z,5.65
2019-01-20T03:07:49.271Z,9.35
2019-01-20T03:10:18.073Z,5.53
2019-01-20T03:12:46.864Z,5.95
2019-01-20T03:15:15.834Z,8.65
2019-01-20T03:17:44.615Z,5.67
2019-01-20T03:20:19.961Z,6.10
2019-01-20T03:22:48.958Z,6.50
2019-01-20T03:25:18.461Z,9.08
2019-01-20T03:27:47.245Z,8.73
2019-01-20T03:30:17.923Z,8.48
2019-01-20T03:32:46.752Z,8.73
2019-01-20T03:35:16.848Z,6.53
2019-01-20T03:37:45.633Z,4.90
2019-01-20T03:40:15.675Z,6.25
2019-01-20T03:42:44.469Z,4.22
2019-01-20T03:45:15.736Z,6.60
2019-01-20T03:47:44.614Z,5.65
2019-01-20T03:50:14.356Z,5.95
2019-01-20T03:52:43.494Z,8.20
2019-01-20T03:55:13.585Z,7.30
2019-01-20T03:57:42.331Z,6.17
2019-01-20T04:00:14.377Z,7.87
2019-01-20T04:02:43.725Z,8.85
2019-01-20T04:05:12.850Z,5.65
2019-01-20T04:07:41.806Z,4.87
2019-01-20T04:10:12.404Z,3.87
2019-01-20T04:12:41.457Z,5.37
2019-01-20T04:15:10.701Z,5.62
2019-01-20T04:17:39.436Z,4.75
2019-01-20T04:20:08.477Z,6.08
2019-01-20T04:22:37.238Z,5.25
2019-01-20T04:25:08.371Z,5.35
2019-01-20T04:27:37.175Z,4.75
2019-01-20T04:30:07.342Z,4.45
2019-01-20T04:32:36.138Z,4.25
2019-01-20T04:35:05.601Z,17.05
2019-01-20T04:37:34.598Z,4.62
2019-01-20T04:40:03.403Z,5.85
2019-01-20T04:42:32.145Z,3.55
2019-01-20T04:45:00.850Z,4.30
2019-01-20T04:47:29.829Z,5.10
2019-01-20T04:49:58.559Z,5.60
2019-01-20T04:52:27.291Z,8.30
2019-01-20T04:54:56.242Z,4.15
2019-01-20T04:57:25.463Z,4.92
2019-01-20T04:59:54.267Z,3.77
2019-01-20T05:02:22.991Z,5.05
2019-01-20T05:04:51.734Z,4.35
2019-01-20T05:07:20.465Z,5.40
2019-01-20T05:09:49.206Z,7.08
2019-01-20T05:12:17.974Z,4.50
2019-01-20T05:14:46.691Z,4.45
2019-01-20T05:17:15.675Z,4.60
2019-01-20T05:19:44.627Z,4.08
2019-01-20T05:22:13.619Z,7.28
2019-01-20T05:24:42.343Z,4.20
2019-01-20T05:27:11.073Z,6.40
2019-01-20T05:29:40.055Z,3.77
2019-01-20T05:32:08.787Z,5.03
2019-01-20T05:34:37.526Z,5.30
2019-01-20T05:37:06.261Z,4.80
2019-01-20T05:39:35.043Z,6.17
2019-01-20T05:42:03.855Z,4.67
2019-01-20T05:44:32.566Z,3.77
2019-01-20T05:47:01.283Z,4.45
2019-01-20T05:49:30.020Z,5.05
2019-01-20T05:51:58.744Z,4.67
2019-01-20T05:54:27.461Z,4.40
2019-01-20T05:56:56.178Z,4.62
2019-01-20T05:59:25.424Z,6.75
2019-01-20T06:01:54.132Z,4.50
2019-01-20T06:04:22.926Z,4.55
2019-01-20T06:06:51.646Z,3.22
2019-01-20T06:09:20.386Z,4.90
2019-01-20T06:11:49.098Z,6.35
2019-01-20T06:14:17.836Z,6.20
2019-01-20T06:16:46.811Z,4.30
2019-01-20T06:19:15.539Z,6.00
2019-01-20T06:21:44.270Z,4.30
2019-01-20T06:24:13.250Z,4.10
2019-01-20T06:26:42.034Z,5.75
2019-01-20T06:29:10.763Z,4.00
2019-01-20T06:31:39.522Z,4.75
2019-01-20T06:34:08.323Z,4.03
2019-01-20T06:36:37.038Z,6.40
2019-01-20T06:39:08.186Z,4.58
2019-01-20T06:41:37.050Z,6.22
2019-01-20T06:44:05.801Z,6.10
2019-01-20T06:46:34.526Z,7.08
2019-01-20T06:49:03.348Z,5.60
2019-01-20T06:51:32.066Z,5.72
2019-01-20T06:54:00.789Z,4.10
2019-01-20T06:56:29.506Z,4.05
2019-01-20T06:58:58.256Z,4.45
2019-01-20T07:01:27.234Z,5.67
2019-01-20T07:03:55.977Z,5.33
2019-01-20T07:06:24.698Z,3.87
2019-01-20T07:08:53.429Z,3.75
2019-01-20T07:11:22.396Z,4.85
2019-01-20T07:13:51.134Z,5.30
2019-01-20T07:16:19.846Z,5.58
2019-01-20T07:18:49.532Z,5.15
2019-01-20T07:21:18.454Z,8.85
2019-01-20T07:23:47.211Z,5.30
2019-01-20T07:26:15.919Z,3.92
2019-01-20T07:28:44.656Z,4.37
2019-01-20T07:31:13.377Z,3.55
2019-01-20T07:33:42.107Z,4.85
2019-01-20T07:36:10.905Z,4.53
2019-01-20T07:38:39.643Z,5.95
2019-01-20T07:41:08.379Z,8.23
2019-01-20T07:43:37.110Z,5.90
2019-01-20T07:46:06.270Z,6.75
2019-01-20T07:48:34.998Z,12.15
2019-01-20T07:51:03.943Z,18.95
2019-01-20T07:53:32.665Z,69.62
2019-01-20T07:56:01.652Z,23.18
2019-01-20T07:58:30.374Z,25.77
2019-01-20T08:00:59.126Z,24.27
2019-01-20T08:03:28.336Z,35.30
2019-01-20T08:05:57.091Z,50.50
2019-01-20T08:08:25.837Z,28.12
2019-01-20T08:10:54.577Z,32.90
2019-01-20T08:13:24.332Z,29.02
2019-01-20T08:15:53.646Z,33.53
2019-01-20T08:18:22.391Z,32.03
2019-01-20T08:20:51.147Z,27.02
2019-01-20T08:23:19.860Z,25.05
2019-01-20T08:25:48.617Z,21.40
2019-01-20T08:28:17.602Z,26.10
2019-01-20T08:30:46.343Z,31.35
2019-01-20T08:33:15.075Z,26.00
2019-01-20T08:35:43.810Z,29.90
2019-01-20T08:38:12.535Z,30.15
2019-01-20T08:40:41.292Z,33.02
2019-01-20T08:43:10.012Z,30.57
2019-01-20T08:46:01.739Z,33.88
2019-01-20T08:48:30.549Z,43.63
2019-01-20T08:50:59.323Z,86.35
2019-01-20T08:53:28.462Z,58.02
2019-01-20T08:55:57.360Z,78.95
2019-01-20T08:58:26.094Z,84.70
2019-01-20T09:00:54.843Z,38.65
2019-01-20T09:03:23.573Z,28.70
2019-01-20T09:05:52.331Z,36.88
2019-01-20T09:08:21.143Z,31.35
2019-01-20T09:10:50.142Z,26.90
2019-01-20T09:13:18.883Z,29.85
2019-01-20T09:15:47.708Z,34.15
2019-01-20T09:18:16.691Z,29.92
2019-01-20T09:20:45.437Z,33.85
2019-01-20T09:23:14.181Z,39.15
2019-01-20T09:25:42.915Z,31.35
2019-01-20T09:28:11.641Z,36.90
2019-01-20T09:30:40.625Z,36.23
2019-01-20T09:33:09.372Z,39.48
2019-01-20T09:35:38.295Z,33.55
2019-01-20T09:38:07.028Z,48.45
2019-01-20T09:40:35.803Z,38.45
2019-01-20T09:43:04.794Z,34.10
2019-01-20T09:45:34.316Z,37.78
2019-01-20T09:48:03.215Z,36.77
2019-01-20T09:50:32.006Z,29.55
2019-01-20T09:53:01.006Z,30.30
2019-01-20T09:55:29.806Z,48.23
2019-01-20T09:57:58.685Z,42.30
2019-01-20T10:00:29.092Z,42.75
2019-01-20T10:02:57.911Z,39.18
2019-01-20T10:05:26.723Z,34.35
2019-01-20T10:07:56.345Z,30.00
2019-01-20T10:10:25.079Z,38.23
2019-01-20T10:12:53.914Z,33.00
2019-01-20T10:15:22.630Z,33.88
2019-01-20T10:17:51.374Z,37.50
2019-01-20T10:20:22.506Z,39.73
2019-01-20T10:22:51.454Z,42.35
2019-01-20T10:25:20.667Z,44.50
2019-01-20T10:27:51.319Z,39.33
2019-01-20T10:30:23.356Z,47.48
2019-01-20T10:32:54.932Z,46.20
2019-01-20T10:35:31.523Z,44.85
2019-01-20T10:38:03.503Z,41.83
2019-01-20T10:40:32.360Z,39.85
2019-01-20T10:43:01.647Z,41.13
2019-01-20T10:45:30.443Z,41.88
2019-01-20T10:47:59.187Z,46.55
2019-01-20T10:50:27.993Z,48.55
2019-01-20T10:52:56.796Z,41.20
2019-01-20T10:55:25.770Z,43.80
2019-01-20T10:57:54.554Z,41.20
2019-01-20T11:00:26.018Z,46.75
2019-01-20T11:02:54.770Z,45.08
2019-01-20T11:05:25.020Z,45.25
2019-01-20T11:07:54.046Z,43.95
2019-01-20T11:10:23.170Z,53.98
2019-01-20T11:12:52.242Z,53.10
2019-01-20T11:15:21.037Z,46.83
2019-01-20T11:17:49.859Z,51.63
2019-01-20T11:20:18.751Z,53.50
2019-01-20T11:22:47.654Z,50.17
2019-01-20T11:25:19.617Z,45.28
2019-01-20T11:27:48.514Z,39.45
2019-01-20T11:30:17.584Z,44.30
2019-01-20T11:32:46.399Z,41.95
2019-01-20T11:35:16.781Z,45.70
2019-01-20T11:37:45.663Z,59.05
2019-01-20T11:40:14.790Z,53.30
2019-01-20T11:42:44.020Z,49.00
2019-01-20T11:45:21.126Z,43.25
2019-01-20T11:47:49.870Z,47.65
2019-01-20T11:50:18.745Z,52.85
2019-01-20T11:52:47.635Z,49.70
2019-01-20T11:55:17.842Z,51.03
2019-01-20T11:57:46.722Z,44.03
2019-01-20T12:00:18.527Z,47.67
2019-01-20T12:02:47.344Z,53.45
2019-01-20T12:05:16.553Z,43.50
2019-01-20T12:07:45.639Z,51.70
2019-01-20T12:10:14.726Z,45.90
2019-01-20T12:12:45.687Z,47.70
2019-01-20T12:15:14.815Z,42.93
2019-01-20T12:17:43.895Z,41.47
2019-01-20T12:20:12.677Z,40.33
2019-01-20T12:22:41.401Z,38.83
2019-01-20T12:25:12.855Z,39.13
2019-01-20T12:27:41.573Z,41.47
2019-01-20T12:30:14.366Z,48.00
2019-01-20T12:32:43.327Z,43.13
2019-01-20T12:35:12.285Z,39.83
2019-01-20T12:37:41.255Z,42.30
2019-01-20T12:40:19.067Z,47.00
2019-01-20T12:42:47.922Z,40.33
2019-01-20T12:45:17.147Z,44.97
2019-01-20T12:47:46.027Z,42.37
2019-01-20T12:50:15.562Z,48.83
2019-01-20T12:52:44.488Z,44.20
2019-01-20T12:55:14.254Z,46.13
2019-01-20T12:57:42.987Z,46.57
2019-01-20T13:00:14.461Z,45.03
2019-01-20T13:02:43.257Z,46.70
2019-01-20T13:05:12.635Z,43.13
2019-01-20T13:07:41.415Z,49.13
2019-01-20T13:10:12.139Z,45.00
2019-01-20T13:12:40.861Z,46.23
2019-01-20T13:15:11.815Z,39.13
2019-01-20T13:17:40.675Z,45.83
2019-01-20T13:20:12.360Z,51.80
2019-01-20T13:22:41.095Z,50.23
2019-01-20T13:25:11.887Z,44.10
2019-01-20T13:27:40.684Z,49.60
2019-01-20T13:30:13.936Z,57.23
2019-01-20T13:32:42.903Z,51.67
2019-01-20T13:35:12.157Z,53.37
2019-01-20T13:37:43.218Z,47.65
2019-01-20T13:40:15.187Z,56.23
2019-01-20T13:42:44.257Z,55.60
2019-01-20T13:45:13.362Z,51.58
2019-01-20T13:47:48.448Z,53.80
2019-01-20T13:50:14.846Z,48.15
2019-01-20T13:52:43.671Z,43.02
2019-01-20T13:55:13.263Z,49.35
2019-01-20T13:57:41.994Z,52.23
2019-01-20T14:00:14.718Z,56.77
2019-01-20T14:02:43.450Z,56.60
2019-01-20T14:05:12.344Z,54.73
2019-01-20T14:07:41.455Z,57.33
2019-01-20T14:10:11.737Z,53.63
2019-01-20T14:12:40.482Z,53.30
2019-01-20T14:15:10.703Z,55.50
2019-01-20T14:17:39.441Z,55.92
2019-01-20T14:20:19.971Z,48.70
2019-01-20T14:22:49.325Z,53.83
2019-01-20T14:25:22.523Z,58.07
2019-01-20T14:27:51.349Z,61.05
2019-01-20T14:30:22.389Z,73.57
2019-01-20T14:32:51.185Z,51.83
2019-01-20T14:35:19.937Z,43.75
2019-01-20T14:37:48.682Z,54.00
2019-01-20T14:40:17.628Z,56.30
2019-01-20T14:42:46.885Z,55.40
2019-01-20T14:45:16.123Z,53.00
2019-01-20T14:47:45.013Z,55.10
2019-01-20T14:50:17.047Z,49.43
2019-01-20T14:52:45.778Z,62.03
2019-01-20T14:55:15.660Z,54.50
2019-01-20T14:57:44.458Z,48.33
2019-01-20T15:00:16.730Z,57.73
2019-01-20T15:02:46.134Z,50.10
2019-01-20T15:05:16.507Z,50.07
2019-01-20T15:07:45.396Z,52.00
2019-01-20T15:10:14.669Z,55.67
2019-01-20T15:12:43.490Z,55.85
2019-01-20T15:15:14.794Z,59.03
2019-01-20T15:17:43.748Z,55.80
2019-01-20T15:20:12.879Z,55.33
2019-01-20T15:22:41.711Z,62.67
2019-01-20T15:25:11.900Z,57.23
2019-01-20T15:27:40.649Z,58.70
2019-01-20T15:30:14.331Z,64.10
2019-01-20T15:32:43.066Z,63.40
2019-01-20T15:35:12.194Z,56.23
2019-01-20T15:37:40.941Z,59.13
2019-01-20T15:40:10.578Z,59.48
2019-01-20T15:42:39.371Z,63.78
2019-01-20T15:45:16.391Z,67.35
2019-01-20T15:47:40.466Z,56.88
2019-01-20T15:50:12.291Z,66.95
2019-01-20T15:52:41.016Z,62.73
2019-01-20T15:55:10.019Z,55.92
2019-01-20T15:57:38.995Z,61.77
2019-01-20T16:00:10.627Z,56.40
2019-01-20T16:02:39.605Z,65.35
2019-01-20T16:05:08.611Z,69.90
2019-01-20T16:07:37.363Z,63.73
2019-01-20T16:10:07.291Z,71.47
2019-01-20T16:12:36.046Z,70.22
2019-01-20T16:15:08.510Z,63.30
2019-01-20T16:17:37.256Z,65.37
2019-01-20T16:20:06.705Z,68.12
2019-01-20T16:22:35.706Z,64.80
2019-01-20T16:25:08.050Z,61.45
2019-01-20T16:27:37.043Z,70.83
2019-01-20T16:30:07.093Z,61.00
2019-01-20T16:32:36.072Z,59.40
2019-01-20T16:35:05.410Z,62.05
2019-01-20T16:37:34.159Z,64.35
2019-01-20T16:40:02.966Z,63.90
2019-01-20T16:42:31.722Z,59.08
2019-01-20T16:45:00.465Z,68.60
2019-01-20T16:47:29.218Z,59.03
2019-01-20T16:49:58.179Z,61.85
2019-01-20T16:52:26.925Z,69.70
2019-01-20T16:54:55.639Z,63.40
2019-01-20T16:57:24.633Z,62.10
2019-01-20T16:59:53.371Z,69.95
2019-01-20T17:02:22.112Z,67.05
2019-01-20T17:04:50.864Z,64.53
2019-01-20T17:07:19.633Z,61.50
2019-01-20T17:09:48.353Z,69.95
2019-01-20T17:12:17.165Z,60.35
2019-01-20T17:14:45.898Z,57.95
2019-01-20T17:17:14.701Z,59.40
2019-01-20T17:19:43.685Z,60.50
2019-01-20T17:22:12.498Z,74.47
2019-01-20T17:24:41.222Z,70.80
2019-01-20T17:27:09.953Z,73.80
2019-01-20T17:29:38.947Z,65.97
2019-01-20T17:32:07.674Z,67.32
2019-01-20T17:34:36.395Z,67.97
2019-01-20T17:37:05.241Z,62.03
2019-01-20T17:39:34.097Z,67.62
2019-01-20T17:42:02.914Z,63.90
2019-01-20T17:44:31.653Z,62.00
2019-01-20T17:47:00.627Z,56.90
2019-01-20T17:49:29.347Z,65.15
2019-01-20T17:51:58.096Z,63.65
2019-01-20T17:54:27.072Z,63.68
2019-01-20T17:56:55.835Z,66.82
2019-01-20T17:59:25.048Z,72.70
2019-01-20T18:01:53.803Z,63.15
2019-01-20T18:04:22.517Z,69.70
2019-01-20T18:06:51.343Z,72.67
2019-01-20T18:09:20.067Z,57.35
2019-01-20T18:11:48.902Z,62.58
2019-01-20T18:14:17.700Z,54.80
2019-01-20T18:16:46.434Z,56.75
2019-01-20T18:19:15.413Z,56.55
2019-01-20T18:21:44.159Z,58.70
2019-01-20T18:24:12.899Z,63.55
2019-01-20T18:26:41.636Z,64.87
2019-01-20T18:29:10.385Z,55.05
2019-01-20T18:31:39.112Z,58.25
2019-01-20T18:34:07.844Z,58.30
2019-01-20T18:36:36.569Z,61.48
2019-01-20T18:39:08.139Z,59.93
2019-01-20T18:41:37.427Z,63.02
2019-01-20T18:44:06.312Z,60.48
2019-01-20T18:46:35.027Z,57.65
2019-01-20T18:49:03.752Z,51.05
2019-01-20T18:51:32.465Z,55.60
2019-01-20T18:54:01.233Z,53.00
2019-01-20T18:56:30.074Z,58.30
2019-01-20T18:58:59.103Z,52.17
2019-01-20T19:01:27.827Z,51.55
2019-01-20T19:03:56.552Z,60.35
2019-01-20T19:06:25.283Z,54.48
2019-01-20T19:08:54.026Z,57.20
2019-01-20T19:11:22.772Z,57.35
2019-01-20T19:13:51.587Z,54.38
2019-01-20T19:16:20.297Z,51.33
2019-01-20T19:18:49.055Z,46.65
2019-01-20T19:21:17.826Z,48.78
2019-01-20T19:23:46.822Z,52.70
2019-01-20T19:26:15.537Z,55.20
2019-01-20T19:28:44.290Z,47.62
2019-01-20T19:31:13.010Z,49.27
2019-01-20T19:33:41.750Z,46.90
2019-01-20T19:36:10.487Z,49.42
2019-01-20T19:38:39.487Z,47.35
2019-01-20T19:41:08.218Z,51.40
2019-01-20T19:43:36.933Z,46.90
2019-01-20T19:46:05.763Z,56.98
2019-01-20T19:48:34.549Z,50.08
2019-01-20T19:51:03.297Z,49.90
2019-01-20T19:53:32.058Z,49.80
2019-01-20T19:56:01.039Z,50.75
2019-01-20T19:58:30.049Z,52.05
2019-01-20T20:00:58.781Z,54.53
2019-01-20T20:03:27.588Z,47.13
2019-01-20T20:05:56.339Z,46.73
2019-01-20T20:08:25.078Z,44.58
2019-01-20T20:10:54.051Z,47.73
2019-01-20T20:13:22.792Z,48.38
2019-01-20T20:15:51.531Z,44.33
2019-01-20T20:18:20.259Z,47.55
2019-01-20T20:20:48.997Z,48.28
2019-01-20T20:23:17.807Z,50.25
2019-01-20T20:25:46.545Z,52.03
2019-01-20T20:28:15.262Z,45.00
2019-01-20T20:30:44.062Z,44.77
2019-01-20T20:33:12.868Z,49.70
2019-01-20T20:35:41.850Z,49.00
2019-01-20T20:38:10.665Z,54.48
2019-01-20T20:40:39.431Z,46.00
2019-01-20T20:43:08.160Z,45.03
2019-01-20T20:45:36.900Z,48.95
2019-01-20T20:48:05.748Z,43.05
2019-01-20T20:50:34.498Z,41.15
2019-01-20T20:53:03.217Z,40.63
2019-01-20T20:55:31.958Z,43.98
2019-01-20T20:58:00.707Z,44.88
2019-01-20T21:00:55.217Z,43.78
2019-01-20T21:03:29.727Z,42.90
2019-01-20T21:05:58.518Z,42.40
2019-01-20T21:08:27.478Z,39.38
2019-01-20T21:10:56.209Z,43.90
2019-01-20T21:13:25.184Z,40.98
2019-01-20T21:15:53.993Z,42.65
2019-01-20T21:18:22.950Z,41.70
2019-01-20T21:20:52.739Z,43.73
2019-01-20T21:23:21.577Z,40.05
2019-01-20T21:25:50.394Z,44.53
2019-01-20T21:28:19.106Z,42.40
2019-01-20T21:30:47.847Z,37.85
2019-01-20T21:33:16.639Z,41.70
2019-01-20T21:35:45.381Z,46.73
2019-01-20T21:38:14.181Z,43.63
2019-01-20T21:40:42.885Z,43.30
2019-01-20T21:43:11.625Z,39.85
2019-01-20T21:45:40.687Z,40.10
2019-01-20T21:48:09.425Z,40.23
2019-01-20T21:50:38.142Z,39.20
2019-01-20T21:53:06.890Z,38.20
2019-01-20T21:55:36.136Z,36.55
2019-01-20T21:58:05.121Z,43.17
2019-01-20T22:00:33.830Z,44.75
2019-01-20T22:03:02.567Z,42.93
2019-01-20T22:05:31.315Z,40.15
2019-01-20T22:08:00.290Z,39.15
2019-01-20T22:10:29.082Z,44.80
2019-01-20T22:12:57.813Z,42.17
2019-01-20T22:15:26.799Z,39.05
2019-01-20T22:17:55.791Z,37.78
2019-01-20T22:20:24.670Z,40.05
2019-01-20T22:22:53.949Z,40.38
2019-01-20T22:25:22.751Z,33.48
2019-01-20T22:27:51.553Z,45.78
2019-01-20T22:30:25.284Z,39.42
2019-01-20T22:32:54.328Z,41.55
2019-01-20T22:35:23.215Z,36.23
2019-01-20T22:37:52.026Z,33.15
2019-01-20T22:40:21.091Z,32.30
2019-01-20T22:42:50.146Z,30.52
2019-01-20T22:45:21.137Z,36.33
2019-01-20T22:47:49.898Z,35.80
2019-01-20T22:50:18.812Z,38.10
2019-01-20T22:52:47.858Z,37.50
2019-01-20T22:55:17.039Z,35.60
2019-01-20T22:57:46.114Z,28.62
2019-01-20T23:00:57.863Z,30.92
2019-01-20T23:03:27.125Z,31.97
2019-01-20T23:05:56.974Z,34.43
2019-01-20T23:08:25.913Z,30.08
2019-01-20T23:10:54.918Z,31.87
2019-01-20T23:13:23.658Z,24.75
2019-01-20T23:15:52.462Z,30.08
2019-01-20T23:18:21.462Z,32.58
2019-01-20T23:20:50.343Z,25.25
2019-01-20T23:23:19.078Z,31.30
2019-01-20T23:25:47.806Z,29.23
2019-01-20T23:28:17.021Z,27.95
2019-01-20T23:30:45.745Z,27.52
2019-01-20T23:33:14.508Z,28.98
2019-01-20T23:35:43.315Z,24.70
2019-01-20T23:38:12.050Z,31.27
2019-01-20T23:40:40.780Z,25.82
2019-01-20T23:43:09.524Z,25.05
2019-01-20T23:45:38.236Z,24.67
2019-01-20T23:48:07.227Z,31.40
2019-01-20T23:50:35.946Z,25.95
2019-01-20T23:53:05.215Z,25.80
2019-01-20T23:55:35.359Z,28.92
2019-01-20T23:58:04.723Z,23.38
